createdAt,value
2023-04-01T00:01:10.220Z,6.65
2023-04-01T00:03:38.868Z,6.90
2023-04-01T00:06:07.432Z,6.97
2023-04-01T00:08:35.650Z,8.38
2023-04-01T00:11:04.247Z,6.65
2023-04-01T00:13:34.301Z,7.18
2023-04-01T00:16:06.614Z,6.90
2023-04-01T00:18:38.515Z,5.80
2023-04-01T00:21:06.518Z,4.32
2023-04-01T00:23:35.176Z,5.63
2023-04-01T00:26:05.320Z,6.05
2023-04-01T00:28:37.580Z,4.65
2023-04-01T00:31:08.319Z,6.65
2023-04-01T00:33:36.678Z,5.35
2023-04-01T00:36:10.337Z,6.47
2023-04-01T00:38:38.950Z,5.70
2023-04-01T00:41:07.981Z,3.58
2023-04-01T00:43:38.298Z,5.72
2023-04-01T00:46:06.765Z,4.90
2023-04-01T00:48:38.582Z,5.47
2023-04-01T00:51:09.824Z,3.05
2023-04-01T00:53:42.637Z,3.30
2023-04-01T00:56:17.910Z,3.97
2023-04-01T00:58:53.308Z,4.90
2023-04-01T01:01:23.876Z,4.95
2023-04-01T01:03:52.262Z,3.58
2023-04-01T01:06:33.883Z,4.32
2023-04-01T01:09:16.393Z,2.67
2023-04-01T01:11:49.416Z,3.47
2023-04-01T01:14:32.069Z,5.65
2023-04-01T01:17:09.132Z,5.30
2023-04-01T01:19:54.860Z,2.25
2023-04-01T01:22:38.903Z,3.67
2023-04-01T01:25:21.475Z,3.92
2023-04-01T01:27:57.551Z,4.82
2023-04-01T01:30:40.955Z,3.72
2023-04-01T01:33:43.362Z,3.33
2023-04-01T01:36:16.000Z,3.90
2023-04-01T01:38:44.392Z,1.65
2023-04-01T01:41:15.924Z,4.07
2023-04-01T01:43:46.988Z,2.83
2023-04-01T01:46:18.979Z,3.67
2023-04-01T01:48:48.439Z,3.63
2023-04-01T01:51:18.427Z,3.40
2023-04-01T01:53:46.125Z,4.32
2023-04-01T01:56:15.484Z,3.00
2023-04-01T01:58:47.104Z,2.28
2023-04-01T02:01:20.090Z,3.58
2023-04-01T02:03:48.622Z,5.63
2023-04-01T02:06:21.401Z,5.30
2023-04-01T02:08:52.904Z,6.18
2023-04-01T02:11:25.528Z,2.97
2023-04-01T02:13:58.051Z,4.57
2023-04-01T02:16:31.050Z,5.28
2023-04-01T02:19:00.533Z,5.85
2023-04-01T02:21:34.008Z,4.43
2023-04-01T02:24:04.916Z,5.38
2023-04-01T02:26:32.808Z,4.85
2023-04-01T02:29:03.414Z,4.85
2023-04-01T02:31:31.489Z,4.68
2023-04-01T02:33:59.752Z,6.32
2023-04-01T02:36:28.295Z,7.43
2023-04-01T02:39:03.113Z,4.00
2023-04-01T02:41:31.414Z,5.70
2023-04-01T02:44:00.287Z,5.82
2023-04-01T02:46:28.029Z,4.63
2023-04-01T02:48:56.279Z,6.97
2023-04-01T02:51:23.956Z,5.72
2023-04-01T02:53:51.630Z,4.32
2023-04-01T02:56:21.468Z,5.07
2023-04-01T02:58:49.128Z,7.45
2023-04-01T03:01:16.939Z,7.03
2023-04-01T03:03:45.065Z,5.65
2023-04-01T03:06:14.797Z,7.75
2023-04-01T03:08:42.590Z,8.88
2023-04-01T03:11:11.967Z,7.53
2023-04-01T03:13:41.131Z,9.55
2023-04-01T03:16:09.151Z,6.45
2023-04-01T03:18:37.446Z,6.80
2023-04-01T03:21:18.076Z,6.28
2023-04-01T03:23:46.375Z,6.47
2023-04-01T03:26:14.518Z,4.88
2023-04-01T03:28:43.627Z,5.57
2023-04-01T03:31:12.126Z,10.15
2023-04-01T03:33:40.019Z,5.28
2023-04-01T03:36:08.271Z,7.85
2023-04-01T03:38:36.927Z,8.07
2023-04-01T03:41:04.739Z,7.63
2023-04-01T03:43:32.414Z,9.18
2023-04-01T03:46:02.164Z,9.35
2023-04-01T03:48:29.867Z,6.68
2023-04-01T03:50:57.557Z,7.00
2023-04-01T03:53:26.040Z,7.35
2023-04-01T03:55:53.726Z,9.82
2023-04-01T03:58:21.720Z,7.28
2023-04-01T04:00:50.134Z,7.88
2023-04-01T04:03:19.389Z,10.55
2023-04-01T04:05:51.772Z,11.93
2023-04-01T04:08:19.670Z,8.90
2023-04-01T04:10:47.475Z,12.82
2023-04-01T04:13:15.784Z,10.38
2023-04-01T04:15:43.470Z,8.65
2023-04-01T04:18:11.136Z,10.95
2023-04-01T04:20:47.313Z,7.05
2023-04-01T04:23:14.998Z,8.60
2023-04-01T04:25:42.679Z,7.35
2023-04-01T04:28:11.007Z,11.30
2023-04-01T04:30:38.698Z,6.03
2023-04-01T04:33:06.414Z,8.60
2023-04-01T04:35:35.948Z,4.82
2023-04-01T04:40:32.613Z,7.23
2023-04-01T04:43:00.310Z,5.82
2023-04-01T04:45:27.971Z,4.75
2023-04-01T04:47:55.685Z,4.43
2023-04-01T04:50:24.042Z,7.68
2023-04-01T04:52:52.838Z,5.93
2023-04-01T04:55:22.549Z,5.25
2023-04-01T05:00:18.807Z,3.47
2023-04-01T05:02:46.603Z,4.22
2023-04-01T05:05:14.789Z,5.35
2023-04-01T05:07:42.497Z,9.60
2023-04-01T05:10:11.135Z,6.57
2023-04-01T05:12:40.881Z,5.38
2023-04-01T05:15:10.279Z,8.18
2023-04-01T05:17:38.006Z,6.53
2023-04-01T05:20:07.430Z,4.95
2023-04-01T05:22:35.409Z,5.82
2023-04-01T05:25:03.076Z,4.45
2023-04-01T05:27:31.236Z,5.95
2023-04-01T05:30:00.440Z,2.85
2023-04-01T05:32:28.190Z,6.45
2023-04-01T05:34:56.205Z,4.60
2023-04-01T05:37:24.910Z,6.57
2023-04-01T05:39:52.581Z,6.77
2023-04-01T05:49:58.207Z,7.47
2023-04-01T05:54:53.580Z,9.15
2023-04-01T05:57:22.381Z,6.60
2023-04-01T05:59:50.113Z,9.00
2023-04-01T06:02:19.501Z,9.05
2023-04-01T06:04:48.251Z,9.43
2023-04-01T06:07:19.444Z,8.03
2023-04-01T06:09:47.732Z,8.18
2023-04-01T06:12:41.186Z,6.97
2023-04-01T06:15:20.624Z,7.90
2023-04-01T06:18:07.250Z,11.35
2023-04-01T06:20:42.016Z,9.27
2023-04-01T06:23:35.515Z,9.25
2023-04-01T06:26:17.332Z,10.35
2023-04-01T06:29:08.617Z,7.45
2023-04-01T06:31:48.960Z,9.50
2023-04-01T06:34:38.369Z,11.07
2023-04-01T06:37:19.139Z,7.07
2023-04-01T06:40:20.120Z,10.07
2023-04-01T06:43:01.974Z,9.00
2023-04-01T06:45:37.510Z,9.48
2023-04-01T06:48:24.457Z,8.73
2023-04-01T06:51:03.651Z,8.45
2023-04-01T06:53:41.581Z,8.98
2023-04-01T06:56:12.420Z,8.57
2023-04-01T06:58:47.115Z,9.93
2023-04-01T07:01:20.611Z,10.35
2023-04-01T07:03:54.990Z,8.45
2023-04-01T07:06:31.127Z,8.05
2023-04-01T07:09:05.604Z,8.20
2023-04-01T07:11:38.192Z,7.15
2023-04-01T07:14:15.806Z,7.60
2023-04-01T07:16:49.667Z,5.18
2023-04-01T07:19:22.938Z,5.68
2023-04-01T07:21:55.403Z,6.10
2023-04-01T07:24:27.522Z,4.82
2023-04-01T07:26:59.572Z,4.65
2023-04-01T07:29:30.003Z,5.05
2023-04-01T07:32:23.742Z,6.93
2023-04-01T07:35:06.119Z,4.65
2023-04-01T07:37:41.680Z,5.50
2023-04-01T07:40:23.138Z,6.13
2023-04-01T07:43:08.159Z,4.18
2023-04-01T07:45:43.104Z,4.90
2023-04-01T07:48:23.459Z,6.00
2023-04-01T07:50:58.513Z,4.40
2023-04-01T07:53:37.604Z,2.90
2023-04-01T07:56:12.304Z,3.13
2023-04-01T07:58:53.256Z,2.97
2023-04-01T08:01:33.429Z,2.47
2023-04-01T08:04:23.838Z,1.63
2023-04-01T08:06:58.671Z,1.92
2023-04-01T08:09:36.281Z,3.33
2023-04-01T08:12:15.592Z,2.95
2023-04-01T08:14:55.098Z,2.78
2023-04-01T08:17:32.666Z,3.22
2023-04-01T08:20:14.742Z,2.00
2023-04-01T08:22:44.257Z,3.45
2023-04-01T08:25:19.019Z,3.80
2023-04-01T08:27:50.053Z,2.60
2023-04-01T08:30:21.545Z,3.47
2023-04-01T08:32:57.829Z,3.75
2023-04-01T08:35:33.296Z,3.25
2023-04-01T08:38:08.678Z,3.63
2023-04-01T08:40:58.046Z,23.52
2023-04-01T08:43:42.008Z,5.35
2023-04-01T08:46:23.716Z,2.85
2023-04-01T08:49:08.318Z,6.25
2023-04-01T08:52:07.687Z,2.95
2023-04-01T08:55:00.093Z,4.43
2023-04-01T08:57:40.257Z,4.07
2023-04-01T09:00:21.164Z,3.75
2023-04-01T09:03:17.811Z,3.38
2023-04-01T09:06:30.784Z,1.88
2023-04-01T09:09:23.866Z,2.60
2023-04-01T09:12:17.920Z,2.00
2023-04-01T09:15:06.339Z,2.20
2023-04-01T09:18:06.892Z,2.08
2023-04-01T09:21:02.070Z,1.92
2023-04-01T09:24:06.819Z,2.20
2023-04-01T09:26:53.268Z,4.28
2023-04-01T09:29:34.685Z,2.45
2023-04-01T09:32:38.529Z,4.00
2023-04-01T09:35:21.132Z,2.30
2023-04-01T09:37:56.183Z,3.33
2023-04-01T09:40:38.417Z,2.30
2023-04-01T09:43:25.217Z,3.53
2023-04-01T09:46:11.391Z,2.92
2023-04-01T09:49:08.090Z,2.05
2023-04-01T09:51:42.867Z,3.13
2023-04-01T09:54:24.261Z,1.80
2023-04-01T09:57:24.284Z,2.25
2023-04-01T10:00:20.336Z,3.60
2023-04-01T10:03:18.448Z,2.10
2023-04-01T10:06:28.276Z,2.00
2023-04-01T10:09:20.031Z,3.47
2023-04-01T10:12:21.647Z,2.58
2023-04-01T10:15:22.480Z,2.88
2023-04-01T10:18:14.761Z,1.70
2023-04-01T10:21:06.655Z,1.63
2023-04-01T10:23:56.796Z,4.10
2023-04-01T10:27:11.243Z,2.05
2023-04-01T10:30:04.782Z,1.90
2023-04-01T10:33:03.721Z,2.25
2023-04-01T10:36:12.977Z,1.98
2023-04-01T10:39:29.162Z,1.85
2023-04-01T10:42:26.892Z,3.13
2023-04-01T10:45:29.184Z,1.40
2023-04-01T10:48:17.492Z,1.20
2023-04-01T10:51:16.800Z,1.35
2023-04-01T10:53:51.892Z,2.00
2023-04-01T10:56:41.551Z,1.55
2023-04-01T11:02:18.450Z,2.08
2023-04-01T11:05:27.845Z,2.20
2023-04-01T11:08:49.504Z,3.30
2023-04-01T11:12:01.313Z,3.33
2023-04-01T11:15:05.058Z,7.07
2023-04-01T11:18:16.229Z,3.80
2023-04-01T11:21:32.803Z,2.65
2023-04-01T11:24:34.354Z,3.05
2023-04-01T11:27:16.521Z,2.53
2023-04-01T11:30:18.545Z,3.33
2023-04-01T11:32:56.552Z,2.85
2023-04-01T11:35:42.628Z,2.40
2023-04-01T11:38:28.248Z,3.45
2023-04-01T11:41:04.359Z,2.28
2023-04-01T11:43:40.715Z,1.80
2023-04-01T11:46:13.354Z,2.17
2023-04-01T11:48:54.628Z,3.90
2023-04-01T11:51:42.223Z,2.88
2023-04-01T11:54:27.755Z,2.13
2023-04-01T11:57:10.224Z,2.25
2023-04-01T12:00:13.026Z,4.68
2023-04-01T12:02:54.261Z,2.60
2023-04-01T12:05:36.516Z,2.88
2023-04-01T12:08:18.673Z,2.22
2023-04-01T12:10:55.418Z,2.00
2023-04-01T12:13:38.356Z,1.73
2023-04-01T12:16:17.848Z,2.97
2023-04-01T12:18:54.782Z,2.30
2023-04-01T12:21:29.578Z,3.50
2023-04-01T12:24:17.218Z,2.63
2023-04-01T12:27:11.599Z,2.30
2023-04-01T12:30:21.190Z,1.80
2023-04-01T12:35:26.192Z,3.33
2023-04-01T12:38:11.141Z,2.70
2023-04-01T12:40:49.924Z,2.00
2023-04-01T12:43:48.641Z,3.08
2023-04-01T12:46:22.425Z,2.80
2023-04-01T12:49:21.775Z,3.85
2023-04-01T12:52:04.801Z,4.63
2023-04-01T12:55:05.825Z,3.80
2023-04-01T12:58:09.690Z,3.20
2023-04-01T13:00:50.900Z,4.97
2023-04-01T13:03:46.581Z,4.80
2023-04-01T13:06:30.581Z,3.95
2023-04-01T13:09:08.594Z,4.35
2023-04-01T13:11:48.383Z,3.55
2023-04-01T13:14:34.054Z,2.60
2023-04-01T13:17:13.862Z,3.05
2023-04-01T13:20:01.895Z,5.32
2023-04-01T13:23:01.332Z,4.38
2023-04-01T13:25:39.001Z,5.85
2023-04-01T13:28:15.128Z,7.32
2023-04-01T13:30:50.712Z,5.55
2023-04-01T13:33:30.962Z,8.07
2023-04-01T13:36:10.463Z,5.28
2023-04-01T13:39:07.204Z,5.38
2023-04-01T13:41:53.628Z,3.90
2023-04-01T13:44:30.066Z,8.23
2023-04-01T13:47:11.634Z,6.22
2023-04-01T13:50:07.278Z,6.97
2023-04-01T13:52:59.645Z,3.45
2023-04-01T13:55:36.653Z,7.50
2023-04-01T13:58:30.488Z,5.72
2023-04-01T14:01:07.605Z,3.17
2023-04-01T14:03:52.484Z,3.03
2023-04-01T14:06:31.350Z,3.03
2023-04-01T14:09:27.749Z,4.65
2023-04-01T14:12:03.421Z,10.02
2023-04-01T14:14:46.135Z,5.00
2023-04-01T14:17:26.569Z,6.55
2023-04-01T14:20:16.717Z,3.42
2023-04-01T14:23:01.946Z,4.07
2023-04-01T14:26:06.462Z,3.25
2023-04-01T14:28:45.819Z,5.30
2023-04-01T14:31:34.515Z,5.53
2023-04-01T14:34:13.446Z,6.63
2023-04-01T14:36:51.529Z,6.00
2023-04-01T14:39:52.000Z,4.03
2023-04-01T14:42:47.556Z,4.72
2023-04-01T14:45:35.871Z,4.18
2023-04-01T14:48:17.777Z,6.45
2023-04-01T14:50:48.794Z,7.55
2023-04-01T14:53:29.424Z,5.90
2023-04-01T14:56:00.993Z,4.20
2023-04-01T14:58:45.811Z,7.00
2023-04-01T15:01:27.941Z,8.55
2023-04-01T15:04:06.829Z,6.00
2023-04-01T15:06:53.241Z,5.00
2023-04-01T15:09:31.575Z,2.95
2023-04-01T15:12:13.764Z,2.03
2023-04-01T15:15:12.564Z,1.67
2023-04-01T15:17:57.107Z,1.52
2023-04-01T15:20:50.751Z,2.10
2023-04-01T15:23:30.119Z,1.40
2023-04-01T15:26:34.633Z,1.75
2023-04-01T15:29:17.483Z,2.35
2023-04-01T15:31:54.125Z,2.30
2023-04-01T15:34:32.154Z,1.40
2023-04-01T15:37:07.486Z,3.15
2023-04-01T15:39:56.597Z,2.58
2023-04-01T15:42:37.180Z,5.93
2023-04-01T15:45:17.203Z,2.60
2023-04-01T15:47:55.304Z,2.33
2023-04-01T15:50:55.471Z,2.70
2023-04-01T15:53:53.875Z,1.70
2023-04-01T15:56:47.026Z,3.55
2023-04-01T15:59:31.417Z,4.82
2023-04-01T16:02:10.670Z,4.13
2023-04-01T16:04:59.495Z,10.63
2023-04-01T16:07:42.333Z,8.85
2023-04-01T16:10:24.079Z,11.77
2023-04-01T16:13:04.227Z,10.73
2023-04-01T16:15:41.898Z,11.45
2023-04-01T16:18:25.041Z,6.45
2023-04-01T16:20:58.512Z,13.13
2023-04-01T16:23:31.965Z,7.50
2023-04-01T16:26:07.911Z,5.45
2023-04-01T16:28:42.170Z,6.80
2023-04-01T16:31:16.403Z,6.13
2023-04-01T16:33:53.110Z,5.45
2023-04-01T16:36:30.712Z,6.10
2023-04-01T16:39:14.646Z,7.20
2023-04-01T16:41:50.752Z,10.20
2023-04-01T16:44:22.442Z,7.13
2023-04-01T16:46:54.566Z,8.93
2023-04-01T16:49:32.393Z,9.68
2023-04-01T16:52:15.999Z,5.28
2023-04-01T16:54:49.783Z,5.13
2023-04-01T16:57:25.535Z,8.55
2023-04-01T17:00:01.757Z,9.88
2023-04-01T17:02:33.936Z,4.40
2023-04-01T17:05:08.007Z,6.15
2023-04-01T17:07:49.147Z,4.32
2023-04-01T17:10:30.052Z,5.65
2023-04-01T17:13:21.474Z,6.78
2023-04-01T17:15:58.944Z,5.53
2023-04-01T17:18:39.692Z,5.32
2023-04-01T17:21:12.416Z,6.72
2023-04-01T17:23:46.256Z,5.80
2023-04-01T17:26:34.924Z,9.13
2023-04-01T17:29:14.427Z,8.73
2023-04-01T17:31:54.881Z,7.53
2023-04-01T17:34:42.120Z,3.72
2023-04-01T17:37:32.841Z,2.70
2023-04-01T17:40:18.951Z,4.97
2023-04-01T17:42:55.894Z,2.45
2023-04-01T17:45:26.488Z,5.00
2023-04-01T17:48:10.851Z,6.40
2023-04-01T17:50:52.219Z,4.55
2023-04-01T17:53:32.452Z,3.95
2023-04-01T17:56:17.144Z,4.75
2023-04-01T17:58:48.463Z,3.65
2023-04-01T18:01:37.359Z,4.03
2023-04-01T18:04:19.757Z,5.65
2023-04-01T18:07:07.118Z,3.60
2023-04-01T18:09:46.794Z,7.78
2023-04-01T18:15:07.376Z,10.32
2023-04-01T18:17:48.441Z,10.25
2023-04-01T18:20:33.780Z,6.85
2023-04-01T18:23:07.492Z,5.32
2023-04-01T18:25:41.681Z,5.35
2023-04-01T18:28:23.670Z,4.88
2023-04-01T18:30:58.711Z,6.03
2023-04-01T18:33:34.198Z,5.47
2023-04-01T18:36:15.550Z,5.15
2023-04-01T18:38:51.331Z,6.00
2023-04-01T18:41:29.568Z,6.80
2023-04-01T18:44:09.204Z,5.65
2023-04-01T18:49:15.957Z,6.55
2023-04-01T18:51:50.553Z,6.68
2023-04-01T18:54:27.378Z,6.35
2023-04-01T18:57:05.084Z,7.28
2023-04-01T18:59:40.880Z,5.50
2023-04-01T19:02:21.908Z,5.75
2023-04-01T19:04:59.089Z,5.10
2023-04-01T19:07:48.816Z,4.63
2023-04-01T19:10:28.548Z,5.90
2023-04-01T19:13:12.114Z,5.85
2023-04-01T19:15:46.677Z,6.32
2023-04-01T19:18:42.947Z,7.90
2023-04-01T19:21:18.654Z,9.15
2023-04-01T19:24:09.263Z,9.05
2023-04-01T19:26:42.798Z,8.23
2023-04-01T19:29:26.177Z,9.30
2023-04-01T19:32:06.560Z,8.73
2023-04-01T19:34:43.110Z,9.70
2023-04-01T19:37:21.240Z,11.00
2023-04-01T19:39:56.614Z,10.95
2023-04-01T19:42:34.689Z,14.43
2023-04-01T19:45:18.907Z,10.73
2023-04-01T19:47:59.655Z,11.20
2023-04-01T19:50:36.631Z,11.85
2023-04-01T19:53:17.578Z,11.85
2023-04-01T19:55:50.751Z,13.00
2023-04-01T19:58:27.021Z,11.88
2023-04-01T20:01:00.356Z,11.10
2023-04-01T20:03:41.583Z,12.18
2023-04-01T20:06:19.930Z,13.88
2023-04-01T20:08:56.559Z,12.35
2023-04-01T20:11:38.116Z,11.77
2023-04-01T20:14:17.256Z,13.70
2023-04-01T20:17:20.912Z,9.93
2023-04-01T20:19:57.535Z,9.32
2023-04-01T20:22:36.491Z,9.63
2023-04-01T20:25:14.780Z,9.98
2023-04-01T20:27:47.808Z,8.90
2023-04-01T20:30:31.425Z,11.98
2023-04-01T20:33:16.554Z,9.50
2023-04-01T20:35:52.399Z,9.20
2023-04-01T20:39:02.924Z,9.75
2023-04-01T20:41:39.664Z,14.82
2023-04-01T20:44:12.845Z,12.88
2023-04-01T20:46:48.433Z,12.40
2023-04-01T20:49:32.530Z,13.52
2023-04-01T20:52:07.080Z,13.20
2023-04-01T20:54:49.971Z,15.35
2023-04-01T20:57:27.531Z,12.52
2023-04-01T21:00:20.653Z,11.70
2023-04-01T21:03:02.677Z,11.68
2023-04-01T21:06:01.807Z,11.90
2023-04-01T21:08:42.407Z,11.88
2023-04-01T21:11:19.309Z,11.88
2023-04-01T21:14:15.132Z,11.18
2023-04-01T21:16:51.824Z,12.68
2023-04-01T21:19:43.572Z,14.15
2023-04-01T21:22:32.842Z,12.90
2023-04-01T21:25:23.704Z,11.80
2023-04-01T21:28:04.995Z,13.43
2023-04-01T21:30:55.171Z,11.27
2023-04-01T21:33:39.003Z,11.07
2023-04-01T21:36:19.894Z,11.48
2023-04-01T21:39:04.236Z,11.98
2023-04-01T21:41:55.432Z,10.77
2023-04-01T21:44:37.568Z,11.30
2023-04-01T21:47:33.958Z,10.02
2023-04-01T21:50:49.415Z,13.75
2023-04-01T21:53:40.001Z,10.55
2023-04-01T21:56:44.530Z,10.77
2023-04-01T21:59:54.517Z,10.77
2023-04-01T22:02:48.922Z,10.35
2023-04-01T22:05:22.809Z,10.75
2023-04-01T22:07:57.741Z,9.52
2023-04-01T22:10:34.974Z,10.02
2023-04-01T22:13:14.572Z,9.27
2023-04-01T22:18:35.765Z,11.05
2023-04-01T22:21:10.685Z,9.48
2023-04-01T22:23:45.657Z,10.05
2023-04-01T22:26:20.372Z,8.70
2023-04-01T22:28:57.270Z,8.00
2023-04-01T22:31:31.138Z,8.30
2023-04-01T22:34:06.616Z,7.88
2023-04-01T22:36:46.569Z,9.23
2023-04-01T22:39:29.035Z,8.88
2023-04-01T22:42:09.352Z,9.00
2023-04-01T22:44:54.134Z,9.32
2023-04-01T22:47:27.399Z,9.43
2023-04-01T22:50:04.565Z,9.80
2023-04-01T22:52:36.615Z,10.02
2023-04-01T22:55:10.346Z,11.13
2023-04-01T22:57:44.121Z,12.02
2023-04-01T23:00:19.637Z,11.45
2023-04-01T23:02:53.043Z,10.57
2023-04-01T23:05:23.348Z,10.05
2023-04-01T23:07:59.209Z,10.73
2023-04-01T23:10:29.734Z,11.65
2023-04-01T23:13:01.152Z,11.43
2023-04-01T23:15:31.391Z,11.07
2023-04-01T23:18:08.280Z,11.35
2023-04-01T23:20:48.940Z,10.82
2023-04-01T23:23:37.885Z,10.10
2023-04-01T23:26:11.426Z,11.20
2023-04-01T23:28:46.562Z,10.55
2023-04-01T23:31:31.747Z,10.27
2023-04-01T23:34:02.020Z,10.55
2023-04-01T23:36:31.643Z,11.45
2023-04-01T23:41:32.697Z,11.55
2023-04-01T23:44:06.292Z,11.85
2023-04-01T23:46:37.524Z,10.77
2023-04-01T23:49:08.169Z,10.98
2023-04-01T23:51:40.624Z,11.32
2023-04-01T23:54:19.424Z,11.60
2023-04-01T23:56:50.710Z,11.80
2023-04-01T23:59:20.787Z,11.80
